Terminal Aerodrome Forecast
Issued by NWS

Home | Current Version | Previous Version | Text Only | Print | Product List | Glossary On
Versions: 1 2 3 4 5 6 7 8 9 10 11 12 13 14 15 16 17 18
000
FTUS43 KIND 302300
TAFBMG
TAF
KBMG 302324Z 3100/3124 31003KT P6SM VCSH SCT110
     FM311400 32013G20KT P6SM VCSH SCT015 BKN025
     FM311900 34016G28KT P6SM VCSH BKN020
      AMD LTD TO CLD VIS AND WIND 3101/3113=

USA.gov is the U.S. government's official web portal to all federal, state and local government web resources and services.